createdAt,value
2022-08-18T00:01:14.830Z,6.05
2022-08-18T00:03:57.122Z,5.13
2022-08-18T00:06:29.430Z,5.28
2022-08-18T00:08:59.107Z,5.80
2022-08-18T00:11:27.446Z,6.32
2022-08-18T00:13:56.806Z,6.25
2022-08-18T00:16:24.644Z,6.40
2022-08-18T00:18:52.630Z,6.07
2022-08-18T00:21:20.538Z,7.63
2022-08-18T00:23:48.372Z,8.00
2022-08-18T00:26:16.597Z,7.15
2022-08-18T00:28:44.491Z,6.78
2022-08-18T00:31:13.744Z,6.97
2022-08-18T00:33:42.942Z,6.32
2022-08-18T00:36:11.383Z,6.85
2022-08-18T00:38:40.109Z,7.38
2022-08-18T00:41:08.099Z,6.50
2022-08-18T00:43:42.431Z,6.57
2022-08-18T00:46:13.002Z,6.85
2022-08-18T00:48:48.762Z,7.13
2022-08-18T00:51:21.866Z,6.20
2022-08-18T00:53:55.345Z,6.25
2022-08-18T00:56:27.873Z,6.93
2022-08-18T01:01:30.575Z,6.03
2022-08-18T01:04:04.253Z,6.07
2022-08-18T01:06:39.332Z,5.80
2022-08-18T01:09:08.732Z,6.15
2022-08-18T01:11:38.250Z,6.60
2022-08-18T01:14:08.502Z,6.78
2022-08-18T01:16:57.453Z,5.82
2022-08-18T01:19:46.249Z,6.13
2022-08-18T01:22:23.330Z,5.97
2022-08-18T01:25:13.272Z,6.60
2022-08-18T01:27:41.905Z,5.38
2022-08-18T01:30:13.871Z,5.88
2022-08-18T01:32:44.241Z,5.85
2022-08-18T01:35:14.223Z,6.53
2022-08-18T01:37:42.555Z,7.20
2022-08-18T01:41:21.281Z,6.65
2022-08-18T01:43:03.607Z,6.23
2022-08-18T01:45:33.356Z,6.07
2022-08-18T01:48:01.510Z,6.22
2022-08-18T01:50:30.307Z,6.30
2022-08-18T01:52:58.214Z,6.80
2022-08-18T01:55:28.451Z,5.90
2022-08-18T01:57:56.803Z,6.13
2022-08-18T02:00:25.239Z,6.05
2022-08-18T02:03:02.048Z,6.60
2022-08-18T02:05:34.391Z,6.72
2022-08-18T02:08:02.186Z,6.93
2022-08-18T02:10:31.479Z,6.63
2022-08-18T02:12:59.371Z,6.85
2022-08-18T02:15:28.127Z,7.18
2022-08-18T02:17:55.972Z,6.72
2022-08-18T02:20:23.835Z,7.07
2022-08-18T02:22:52.458Z,6.55
2022-08-18T02:25:20.754Z,6.70
2022-08-18T02:27:52.732Z,7.07
2022-08-18T02:30:20.789Z,7.13
2022-08-18T02:32:49.372Z,8.40
2022-08-18T02:35:17.271Z,9.40
2022-08-18T02:37:48.037Z,8.57
2022-08-18T02:40:17.030Z,8.18
2022-08-18T02:42:45.759Z,8.63
2022-08-18T02:45:15.354Z,8.13
2022-08-18T02:47:44.908Z,8.32
2022-08-18T02:50:13.880Z,8.48
2022-08-18T02:52:41.822Z,8.52
2022-08-18T02:55:11.735Z,8.55
2022-08-18T02:57:43.750Z,8.05
2022-08-18T03:00:15.930Z,8.60
2022-08-18T03:02:47.841Z,8.35
2022-08-18T03:05:16.445Z,8.13
2022-08-18T03:07:44.594Z,8.30
2022-08-18T03:10:32.779Z,8.73
2022-08-18T03:13:02.635Z,9.02
2022-08-18T03:15:32.184Z,7.88
2022-08-18T03:18:01.145Z,9.23
2022-08-18T03:20:30.989Z,7.38
2022-08-18T03:23:05.634Z,7.78
2022-08-18T03:25:37.600Z,8.65
2022-08-18T03:28:07.017Z,9.10
2022-08-18T03:30:36.213Z,8.13
2022-08-18T03:33:04.105Z,9.63
2022-08-18T03:35:31.993Z,8.85
2022-08-18T03:38:00.089Z,8.88
2022-08-18T03:40:28.075Z,9.85
2022-08-18T03:42:56.381Z,9.00
2022-08-18T03:45:24.338Z,9.82
2022-08-18T03:47:53.720Z,8.60
2022-08-18T03:50:24.474Z,9.75
2022-08-18T03:52:52.613Z,8.75
2022-08-18T03:55:20.658Z,8.30
2022-08-18T03:57:48.509Z,9.15
2022-08-18T04:00:17.144Z,8.75
2022-08-18T04:02:45.004Z,8.85
2022-08-18T04:05:14.771Z,9.18
2022-08-18T04:07:42.968Z,9.25
2022-08-18T04:10:13.923Z,9.07
2022-08-18T04:12:47.194Z,9.98
2022-08-18T04:15:15.047Z,9.68
2022-08-18T04:18:03.619Z,9.10
2022-08-18T04:20:33.447Z,7.80
2022-08-18T04:23:01.324Z,8.80
2022-08-18T04:25:32.836Z,8.10
2022-08-18T04:28:03.333Z,8.00
2022-08-18T04:30:31.560Z,8.27
2022-08-18T04:32:59.397Z,8.32
2022-08-18T04:35:29.081Z,7.53
2022-08-18T04:37:58.332Z,9.38
2022-08-18T04:40:27.213Z,8.75
2022-08-18T04:42:55.207Z,9.00
2022-08-18T04:45:23.039Z,9.38
2022-08-18T04:47:51.386Z,10.20
2022-08-18T04:50:20.013Z,9.93
2022-08-18T04:53:05.374Z,8.90
2022-08-18T04:55:34.577Z,10.68
2022-08-18T04:58:02.431Z,10.27
2022-08-18T05:00:30.315Z,9.48
2022-08-18T05:02:58.364Z,9.75
2022-08-18T05:05:27.521Z,9.02
2022-08-18T05:07:55.418Z,8.77
2022-08-18T05:10:23.245Z,9.13
2022-08-18T05:12:52.495Z,9.40
2022-08-18T05:15:21.592Z,9.20
2022-08-18T05:17:50.768Z,8.95
2022-08-18T05:20:19.822Z,9.32
2022-08-18T05:22:47.702Z,10.27
2022-08-18T05:25:16.201Z,9.73
2022-08-18T05:27:44.736Z,9.55
2022-08-18T05:30:15.283Z,9.27
2022-08-18T05:32:48.059Z,9.07
2022-08-18T05:35:22.700Z,9.73
2022-08-18T05:38:02.895Z,11.05
2022-08-18T05:40:31.014Z,10.93
2022-08-18T05:43:00.283Z,11.15
2022-08-18T05:45:29.866Z,11.85
2022-08-18T05:48:01.415Z,10.82
2022-08-18T05:50:33.400Z,11.40
2022-08-18T05:53:13.564Z,11.55
2022-08-18T05:56:05.010Z,11.65
2022-08-18T05:58:37.814Z,12.48
2022-08-18T06:01:10.060Z,11.75
2022-08-18T06:03:47.667Z,12.18
2022-08-18T06:06:20.972Z,13.82
2022-08-18T06:08:57.611Z,15.77
2022-08-18T06:11:25.812Z,13.63
2022-08-18T06:13:59.657Z,13.15
2022-08-18T06:16:44.493Z,10.73
2022-08-18T06:19:28.024Z,11.73
2022-08-18T06:22:04.610Z,10.23
2022-08-18T06:24:39.332Z,12.52
2022-08-18T06:27:18.191Z,11.60
2022-08-18T06:29:58.195Z,11.35
2022-08-18T06:32:41.809Z,12.20
2022-08-18T06:35:19.232Z,18.92
2022-08-18T06:38:13.669Z,20.70
2022-08-18T06:40:41.854Z,26.85
2022-08-18T06:43:15.755Z,28.27
2022-08-18T06:45:47.048Z,28.60
2022-08-18T06:48:24.410Z,29.05
2022-08-18T06:50:55.188Z,31.27
2022-08-18T06:53:27.986Z,32.92
2022-08-18T06:55:56.617Z,36.22
2022-08-18T06:58:30.070Z,33.25
2022-08-18T07:01:01.386Z,41.00
2022-08-18T07:03:45.343Z,31.60
2022-08-18T07:06:29.071Z,42.50
2022-08-18T07:09:17.960Z,43.10
2022-08-18T07:12:01.247Z,43.88
2022-08-18T07:14:29.147Z,46.90
2022-08-18T07:17:11.240Z,40.42
2022-08-18T07:19:40.740Z,40.17
2022-08-18T07:22:11.779Z,44.80
2022-08-18T07:24:42.473Z,43.30
2022-08-18T07:27:12.967Z,47.50
2022-08-18T07:30:00.166Z,46.83
2022-08-18T07:32:34.432Z,45.05
2022-08-18T07:35:07.208Z,44.58
2022-08-18T07:37:40.913Z,47.08
2022-08-18T07:40:21.585Z,46.88
2022-08-18T07:43:02.147Z,48.58
2022-08-18T07:45:37.551Z,46.58
2022-08-18T07:48:34.942Z,40.70
2022-08-18T07:51:13.040Z,48.50
2022-08-18T07:53:56.293Z,46.92
2022-08-18T07:56:42.883Z,43.50
2022-08-18T07:59:17.898Z,44.78
2022-08-18T08:01:53.742Z,48.70
2022-08-18T08:04:31.377Z,46.65
2022-08-18T08:07:25.350Z,43.78
2022-08-18T08:10:13.526Z,42.47
2022-08-18T08:12:48.424Z,42.95
2022-08-18T08:15:26.746Z,47.88
2022-08-18T08:18:00.946Z,44.60
2022-08-18T08:20:34.241Z,44.15
2022-08-18T08:23:17.223Z,41.95
2022-08-18T08:25:57.333Z,43.92
2022-08-18T08:28:40.811Z,39.08
2022-08-18T08:31:35.314Z,43.15
2022-08-18T08:34:10.569Z,39.25
2022-08-18T08:36:41.974Z,39.63
2022-08-18T08:39:18.405Z,45.30
2022-08-18T08:41:51.939Z,38.60
2022-08-18T08:44:23.551Z,41.55
2022-08-18T08:46:57.782Z,36.00
2022-08-18T08:49:36.901Z,39.10
2022-08-18T08:52:12.898Z,40.38
2022-08-18T08:54:47.612Z,38.60
2022-08-18T08:57:18.944Z,39.50
2022-08-18T08:59:50.860Z,40.42
2022-08-18T09:02:47.116Z,34.55
2022-08-18T09:05:20.762Z,37.05
2022-08-18T09:08:12.283Z,36.38
2022-08-18T09:11:02.659Z,35.92
2022-08-18T09:13:44.715Z,38.28
2022-08-18T09:16:27.844Z,40.58
2022-08-18T09:19:22.694Z,37.30
2022-08-18T09:21:58.637Z,42.50
2022-08-18T09:24:28.998Z,37.33
2022-08-18T09:27:24.905Z,36.65
2022-08-18T09:29:57.338Z,40.00
2022-08-18T09:32:53.097Z,35.80
2022-08-18T09:35:51.850Z,36.03
2022-08-18T09:38:43.662Z,31.75
2022-08-18T09:41:35.181Z,34.30
2022-08-18T09:44:21.671Z,34.63
2022-08-18T09:46:58.675Z,36.75
2022-08-18T09:49:47.826Z,32.30
2022-08-18T09:55:28.954Z,33.78
2022-08-18T09:58:15.017Z,33.15
2022-08-18T10:00:46.881Z,34.92
2022-08-18T10:03:25.494Z,33.05
2022-08-18T10:06:06.808Z,34.95
2022-08-18T10:09:36.794Z,36.88
2022-08-18T10:12:19.185Z,34.97
2022-08-18T10:15:33.265Z,35.33
2022-08-18T10:18:50.030Z,35.72
2022-08-18T10:21:28.074Z,34.63
2022-08-18T10:24:35.306Z,35.67
2022-08-18T10:27:04.377Z,34.85
2022-08-18T10:29:56.410Z,33.58
2022-08-18T10:32:39.990Z,31.92
2022-08-18T10:35:52.212Z,34.33
2022-08-18T10:38:30.866Z,28.83
2022-08-18T10:41:09.717Z,32.20
2022-08-18T10:43:57.372Z,31.27
2022-08-18T10:46:31.862Z,33.72
2022-08-18T10:49:06.938Z,31.02
2022-08-18T10:51:59.745Z,33.65
2022-08-18T10:54:50.821Z,31.30
2022-08-18T10:57:29.288Z,35.17
2022-08-18T11:00:04.100Z,33.35
2022-08-18T11:02:50.857Z,34.42
2022-08-18T11:05:23.534Z,32.53
2022-08-18T11:07:59.066Z,35.05
2022-08-18T11:10:57.543Z,33.95
2022-08-18T11:13:33.102Z,36.78
2022-08-18T11:16:13.542Z,37.65
2022-08-18T11:18:44.946Z,34.58
2022-08-18T11:21:24.967Z,36.33
2022-08-18T11:24:10.070Z,34.90
2022-08-18T11:26:40.448Z,36.72
2022-08-18T11:29:32.783Z,36.47
2022-08-18T11:32:06.474Z,36.50
2022-08-18T11:34:52.121Z,38.92
2022-08-18T11:37:27.355Z,39.03
2022-08-18T11:40:00.715Z,39.72
2022-08-18T11:42:31.615Z,41.67
2022-08-18T11:45:07.840Z,42.20
2022-08-18T11:47:38.677Z,40.20
2022-08-18T11:50:13.153Z,38.80
2022-08-18T11:55:39.952Z,36.72
2022-08-18T11:58:41.153Z,37.00
2022-08-18T12:01:09.588Z,32.10
2022-08-18T12:03:44.979Z,34.13
2022-08-18T12:06:27.054Z,35.88
2022-08-18T12:09:00.452Z,34.55
2022-08-18T12:11:32.541Z,32.97
2022-08-18T12:16:54.386Z,33.05
2022-08-18T12:19:24.474Z,31.67
2022-08-18T12:21:56.719Z,30.77
2022-08-18T12:24:29.368Z,29.73
2022-08-18T12:27:20.534Z,31.77
2022-08-18T12:32:50.307Z,29.52
2022-08-18T12:35:32.383Z,30.42
2022-08-18T12:38:03.566Z,30.52
2022-08-18T12:40:41.030Z,31.92
2022-08-18T12:43:10.494Z,32.10
2022-08-18T12:45:38.993Z,31.95
2022-08-18T12:48:08.130Z,30.55
2022-08-18T12:50:50.048Z,32.45
2022-08-18T12:53:29.993Z,31.50
2022-08-18T12:56:10.645Z,31.83
2022-08-18T13:01:08.999Z,31.45
2022-08-18T13:03:38.221Z,29.05
2022-08-18T13:08:48.110Z,30.60
2022-08-18T13:11:23.442Z,29.50
2022-08-18T13:13:56.200Z,31.42
2022-08-18T13:16:38.954Z,29.77
2022-08-18T13:19:15.242Z,31.23
2022-08-18T13:21:43.218Z,28.67
2022-08-18T13:24:12.721Z,32.65
2022-08-18T13:26:45.973Z,32.33
2022-08-18T13:29:17.617Z,33.05
2022-08-18T13:31:56.023Z,31.08
2022-08-18T13:34:27.583Z,31.42
2022-08-18T13:36:58.375Z,31.08
2022-08-18T13:39:34.354Z,31.17
2022-08-18T13:42:26.413Z,28.65
2022-08-18T13:44:54.938Z,31.80
2022-08-18T13:47:23.517Z,30.97
2022-08-18T13:49:58.102Z,30.48
2022-08-18T13:52:34.466Z,33.45
2022-08-18T13:55:08.341Z,32.13
2022-08-18T13:57:41.833Z,30.17
2022-08-18T14:00:18.376Z,32.10
2022-08-18T14:02:57.145Z,30.48
2022-08-18T14:05:36.706Z,30.65
2022-08-18T14:08:19.184Z,30.05
2022-08-18T14:10:50.154Z,31.20
2022-08-18T14:13:20.701Z,32.03
2022-08-18T14:15:56.429Z,28.85
2022-08-18T14:18:29.141Z,29.90
2022-08-18T14:21:17.054Z,31.83
2022-08-18T14:24:10.710Z,31.85
2022-08-18T14:26:51.498Z,27.65
2022-08-18T14:29:44.803Z,31.48
2022-08-18T14:32:17.769Z,30.67
2022-08-18T14:34:50.726Z,29.40
2022-08-18T14:37:19.602Z,30.02
2022-08-18T14:39:50.399Z,28.15
2022-08-18T14:42:41.354Z,28.98
2022-08-18T14:45:27.531Z,26.45
2022-08-18T14:48:01.453Z,28.90
2022-08-18T14:50:29.475Z,27.02
2022-08-18T14:52:59.110Z,27.23
2022-08-18T14:55:26.980Z,28.15
2022-08-18T14:57:54.936Z,28.88
2022-08-18T15:00:32.123Z,27.40
2022-08-18T15:03:01.419Z,27.52
2022-08-18T15:05:33.856Z,26.70
2022-08-18T15:08:04.766Z,26.60
2022-08-18T15:10:33.658Z,26.88
2022-08-18T15:13:02.037Z,24.27
2022-08-18T15:15:42.106Z,25.70
2022-08-18T15:18:22.659Z,28.00
2022-08-18T15:21:10.279Z,25.80
2022-08-18T15:24:04.740Z,28.17
2022-08-18T15:26:43.884Z,26.90
2022-08-18T15:29:12.074Z,25.90
2022-08-18T15:31:50.815Z,25.20
2022-08-18T15:34:20.777Z,27.92
2022-08-18T15:36:49.432Z,27.08
2022-08-18T15:39:17.497Z,29.00
2022-08-18T15:44:19.408Z,30.33
2022-08-18T15:46:53.061Z,31.55
2022-08-18T15:49:23.893Z,27.10
2022-08-18T15:51:52.588Z,28.45
2022-08-18T15:54:20.795Z,29.15
2022-08-18T15:56:57.734Z,45.22
2022-08-18T15:59:33.056Z,32.65
2022-08-18T16:02:07.040Z,27.92
2022-08-18T16:04:43.000Z,26.73
2022-08-18T16:07:13.861Z,26.65
2022-08-18T16:09:41.792Z,27.35
2022-08-18T16:12:10.729Z,29.75
2022-08-18T16:14:40.136Z,29.42
2022-08-18T16:17:09.434Z,27.17
2022-08-18T16:19:47.433Z,26.33
2022-08-18T16:22:17.098Z,26.77
2022-08-18T16:24:45.196Z,25.80
2022-08-18T16:27:20.767Z,24.80
2022-08-18T16:29:49.608Z,24.95
2022-08-18T16:32:17.641Z,25.13
2022-08-18T16:34:46.834Z,26.98
2022-08-18T16:39:47.548Z,24.30
2022-08-18T16:42:17.094Z,24.15
2022-08-18T16:44:45.250Z,95.53
2022-08-18T16:47:14.256Z,33.45
2022-08-18T16:49:45.377Z,26.17
2022-08-18T16:52:14.707Z,26.13
2022-08-18T16:54:45.522Z,26.65
2022-08-18T16:57:13.501Z,27.48
2022-08-18T16:59:58.835Z,29.02
2022-08-18T17:02:44.034Z,34.08
2022-08-18T17:05:12.312Z,32.30
2022-08-18T17:07:44.288Z,32.35
2022-08-18T17:10:12.730Z,30.02
2022-08-18T17:12:40.599Z,26.95
2022-08-18T17:15:09.756Z,26.52
2022-08-18T17:17:37.599Z,26.23
2022-08-18T17:20:07.008Z,25.95
2022-08-18T17:22:39.339Z,27.65
2022-08-18T17:25:12.319Z,27.48
2022-08-18T17:27:43.375Z,25.92
2022-08-18T17:30:17.408Z,27.25
2022-08-18T17:32:49.868Z,27.55
2022-08-18T17:35:26.349Z,26.30
2022-08-18T17:38:02.391Z,25.85
2022-08-18T17:40:39.035Z,28.33
2022-08-18T17:43:10.278Z,24.88
2022-08-18T17:45:38.398Z,27.07
2022-08-18T17:48:13.368Z,25.63
2022-08-18T17:51:03.328Z,28.52
2022-08-18T17:53:35.600Z,28.48
2022-08-18T17:56:10.885Z,26.80
2022-08-18T17:58:41.671Z,27.92
2022-08-18T18:01:11.005Z,28.90
2022-08-18T18:03:40.872Z,28.15
2022-08-18T18:06:12.190Z,29.02
2022-08-18T18:08:55.638Z,27.52
2022-08-18T18:11:32.155Z,27.77
2022-08-18T18:14:01.663Z,25.75
2022-08-18T18:16:35.193Z,27.80
2022-08-18T18:19:07.217Z,26.95
2022-08-18T18:22:00.183Z,26.20
2022-08-18T18:24:32.132Z,26.33
2022-08-18T18:27:01.546Z,27.17
2022-08-18T18:29:37.813Z,25.00
2022-08-18T18:32:24.024Z,27.55
2022-08-18T18:35:12.090Z,26.35
2022-08-18T18:37:47.752Z,27.30
2022-08-18T18:40:27.799Z,24.08
2022-08-18T18:42:58.846Z,28.55
2022-08-18T18:45:29.061Z,26.83
2022-08-18T18:48:05.430Z,26.63
2022-08-18T18:50:52.965Z,28.73
2022-08-18T18:53:31.224Z,26.10
2022-08-18T18:56:08.763Z,25.35
2022-08-18T18:58:54.356Z,26.45
2022-08-18T19:01:34.141Z,24.77
2022-08-18T19:04:07.679Z,25.33
2022-08-18T19:06:47.605Z,24.73
2022-08-18T19:09:23.158Z,26.85
2022-08-18T19:12:03.504Z,27.00
2022-08-18T19:14:37.753Z,28.10
2022-08-18T19:17:13.380Z,25.35
2022-08-18T19:19:48.504Z,26.30
2022-08-18T19:22:22.848Z,24.52
2022-08-18T19:24:57.062Z,23.65
2022-08-18T19:27:30.134Z,25.55
2022-08-18T19:30:15.976Z,24.08
2022-08-18T19:32:47.554Z,26.17
2022-08-18T19:35:19.890Z,28.25
2022-08-18T19:38:10.382Z,25.55
2022-08-18T19:40:47.632Z,25.38
2022-08-18T19:43:24.845Z,25.30
2022-08-18T19:46:03.250Z,25.13
2022-08-18T19:48:39.258Z,26.10
2022-08-18T19:51:13.896Z,24.92
2022-08-18T19:54:01.174Z,26.88
2022-08-18T19:56:49.374Z,25.30
2022-08-18T19:59:47.821Z,26.00
2022-08-18T20:02:35.235Z,27.17
2022-08-18T20:05:18.543Z,26.42
2022-08-18T20:08:32.550Z,25.48
2022-08-18T20:11:41.177Z,25.25
2022-08-18T20:14:12.602Z,26.02
2022-08-18T20:16:44.862Z,26.23
2022-08-18T20:20:06.376Z,26.42
2022-08-18T20:22:39.686Z,27.33
2022-08-18T20:25:32.889Z,27.48
2022-08-18T20:28:21.190Z,27.13
2022-08-18T20:30:54.802Z,26.55
2022-08-18T20:33:32.503Z,27.50
2022-08-18T20:36:28.328Z,26.50
2022-08-18T20:38:59.187Z,25.65
2022-08-18T20:41:52.007Z,26.35
2022-08-18T20:44:57.576Z,24.88
2022-08-18T20:47:57.840Z,25.83
2022-08-18T20:50:46.804Z,26.80
2022-08-18T20:53:40.058Z,25.73
2022-08-18T20:56:31.954Z,24.90
2022-08-18T20:59:08.639Z,25.38
2022-08-18T21:01:41.504Z,22.23
2022-08-18T21:04:09.794Z,23.95
2022-08-18T21:06:44.404Z,21.48
2022-08-18T21:09:18.485Z,24.70
2022-08-18T21:11:48.959Z,24.15
2022-08-18T21:14:30.004Z,24.50
2022-08-18T21:16:59.296Z,25.20
2022-08-18T21:19:28.896Z,23.73
2022-08-18T21:21:59.949Z,24.30
2022-08-18T21:24:33.376Z,27.45
2022-08-18T21:27:05.863Z,24.58
2022-08-18T21:29:46.965Z,24.90
2022-08-18T21:32:19.895Z,22.07
2022-08-18T21:37:20.192Z,30.27
2022-08-18T21:39:55.226Z,24.60
2022-08-18T21:42:27.522Z,25.83
2022-08-18T21:45:00.824Z,24.88
2022-08-18T21:47:32.058Z,26.77
2022-08-18T21:50:12.601Z,28.60
2022-08-18T21:52:51.043Z,25.08
2022-08-18T21:55:24.892Z,27.30
2022-08-18T21:58:02.729Z,32.03
2022-08-18T22:00:33.829Z,26.33
2022-08-18T22:06:41.634Z,28.15
2022-08-18T22:09:35.953Z,27.45
2022-08-18T22:12:43.089Z,26.63
2022-08-18T22:15:15.340Z,24.77
2022-08-18T22:17:52.497Z,27.52
2022-08-18T22:20:46.378Z,23.77
2022-08-18T22:23:54.537Z,25.08
2022-08-18T22:26:27.603Z,26.45
2022-08-18T22:29:02.178Z,25.33
2022-08-18T22:31:33.959Z,26.48
2022-08-18T22:34:07.242Z,26.13
2022-08-18T22:36:37.922Z,24.42
2022-08-18T22:39:11.795Z,25.47
2022-08-18T22:41:46.155Z,26.70
2022-08-18T22:44:14.102Z,21.55
2022-08-18T22:46:41.940Z,22.85
2022-08-18T22:49:10.442Z,22.70
2022-08-18T22:51:38.746Z,24.45
2022-08-18T22:54:10.918Z,21.90
2022-08-18T22:56:39.377Z,21.50
2022-08-18T22:59:22.055Z,21.35
2022-08-18T23:01:51.971Z,19.88
2022-08-18T23:04:22.276Z,20.15
2022-08-18T23:06:52.546Z,19.80
2022-08-18T23:09:28.042Z,17.75
2022-08-18T23:12:00.467Z,15.43
2022-08-18T23:14:28.965Z,17.38
2022-08-18T23:16:56.835Z,14.25
2022-08-18T23:19:24.899Z,14.30
2022-08-18T23:21:53.010Z,13.40
2022-08-18T23:24:25.197Z,14.60
2022-08-18T23:26:53.210Z,13.98
2022-08-18T23:29:23.783Z,14.07
2022-08-18T23:31:52.436Z,14.95
2022-08-18T23:34:23.986Z,13.32
2022-08-18T23:36:57.729Z,13.80
2022-08-18T23:39:27.323Z,12.98
2022-08-18T23:41:55.503Z,13.68
2022-08-18T23:44:27.646Z,12.38
2022-08-18T23:46:56.567Z,9.77
2022-08-18T23:49:29.075Z,12.68
2022-08-18T23:51:58.209Z,11.38
2022-08-18T23:54:31.280Z,10.15
2022-08-18T23:57:02.881Z,11.02
2022-08-18T23:59:32.153Z,11.00
